createdAt,value
2022-12-16T00:02:25.221Z,25.33
2022-12-16T00:04:52.158Z,23.43
2022-12-16T00:07:18.869Z,26.20
2022-12-16T00:09:45.817Z,23.37
2022-12-16T00:12:12.482Z,24.97
2022-12-16T00:14:39.103Z,26.37
2022-12-16T00:17:06.159Z,26.00
2022-12-16T00:19:32.802Z,23.83
2022-12-16T00:21:59.495Z,23.97
2022-12-16T00:24:26.193Z,25.60
2022-12-16T00:26:52.854Z,23.83
2022-12-16T00:29:20.188Z,25.33
2022-12-16T00:31:48.190Z,22.80
2022-12-16T00:34:15.753Z,25.87
2022-12-16T00:36:43.523Z,24.57
2022-12-16T00:39:11.449Z,24.83
2022-12-16T00:41:38.394Z,22.97
2022-12-16T00:44:05.359Z,24.63
2022-12-16T00:46:32.163Z,27.90
2022-12-16T00:48:58.797Z,24.43
2022-12-16T00:51:25.548Z,24.83
2022-12-16T00:53:52.256Z,23.73
2022-12-16T00:56:19.430Z,29.40
2022-12-16T00:58:46.422Z,28.63
2022-12-16T01:01:14.104Z,25.00
2022-12-16T01:03:41.810Z,25.93
2022-12-16T01:06:14.842Z,27.73
2022-12-16T01:08:48.138Z,25.73
2022-12-16T01:11:17.236Z,28.73
2022-12-16T01:13:45.063Z,24.67
2022-12-16T01:16:11.882Z,26.67
2022-12-16T01:18:38.582Z,26.17
2022-12-16T01:21:07.447Z,24.60
2022-12-16T01:23:35.686Z,23.37
2022-12-16T01:26:03.109Z,21.57
2022-12-16T01:28:30.907Z,28.20
2022-12-16T01:31:04.101Z,26.97
2022-12-16T01:33:32.859Z,26.80
2022-12-16T01:36:02.258Z,21.93
2022-12-16T01:38:29.540Z,22.70
2022-12-16T01:40:56.569Z,21.57
2022-12-16T01:43:28.322Z,27.00
2022-12-16T01:46:03.213Z,21.87
2022-12-16T01:48:38.657Z,24.93
2022-12-16T01:51:19.542Z,23.53
2022-12-16T01:53:47.985Z,21.80
2022-12-16T01:56:16.876Z,21.90
2022-12-16T01:58:45.189Z,21.33
2022-12-16T02:01:13.433Z,22.33
2022-12-16T02:03:41.422Z,24.83
2022-12-16T02:06:08.547Z,21.10
2022-12-16T02:08:35.595Z,20.63
2022-12-16T02:11:21.821Z,22.27
2022-12-16T02:14:21.405Z,22.53
2022-12-16T02:17:08.273Z,20.80
2022-12-16T02:20:15.076Z,19.90
2022-12-16T02:23:30.289Z,19.60
2022-12-16T02:26:06.246Z,20.60
2022-12-16T02:28:48.466Z,21.23
2022-12-16T02:31:31.552Z,18.67
2022-12-16T02:34:47.324Z,20.93
2022-12-16T02:37:37.895Z,18.10
2022-12-16T02:40:16.222Z,18.93
2022-12-16T02:42:50.381Z,17.03
2022-12-16T02:45:29.350Z,18.20
2022-12-16T02:47:56.409Z,20.20
2022-12-16T02:50:30.675Z,20.43
2022-12-16T02:52:59.035Z,17.40
2022-12-16T02:55:39.620Z,17.87
2022-12-16T02:58:50.757Z,17.77
2022-12-16T03:01:21.720Z,17.13
2022-12-16T03:04:00.319Z,19.63
2022-12-16T03:06:28.522Z,18.10
2022-12-16T03:08:58.637Z,17.83
2022-12-16T03:11:28.699Z,18.30
2022-12-16T03:13:56.943Z,17.30
2022-12-16T03:16:27.359Z,18.07
2022-12-16T03:18:58.243Z,17.87
2022-12-16T03:21:29.244Z,18.67
2022-12-16T03:24:00.588Z,17.30
2022-12-16T03:26:34.588Z,15.27
2022-12-16T03:29:07.976Z,15.33
2022-12-16T03:31:52.303Z,17.43
2022-12-16T03:34:28.867Z,17.07
2022-12-16T03:37:00.371Z,14.63
2022-12-16T03:39:27.425Z,18.80
2022-12-16T03:41:54.982Z,16.93
2022-12-16T03:44:23.763Z,17.77
2022-12-16T03:46:50.472Z,16.40
2022-12-16T03:49:17.225Z,14.60
2022-12-16T03:51:43.903Z,15.93
2022-12-16T03:54:10.784Z,15.73
2022-12-16T03:56:37.901Z,16.20
2022-12-16T03:59:04.543Z,15.70
2022-12-16T04:01:31.285Z,14.80
2022-12-16T04:03:58.057Z,13.90
2022-12-16T04:06:24.861Z,14.50
2022-12-16T04:08:51.627Z,16.43
2022-12-16T04:11:36.804Z,15.47
2022-12-16T04:14:22.453Z,17.57
2022-12-16T04:17:07.741Z,14.17
2022-12-16T04:19:55.694Z,14.03
2022-12-16T04:22:47.906Z,14.70
2022-12-16T04:25:18.665Z,15.73
2022-12-16T04:27:47.066Z,16.90
2022-12-16T04:30:19.214Z,15.23
2022-12-16T04:33:10.526Z,15.60
2022-12-16T04:35:55.979Z,14.30
2022-12-16T04:38:42.205Z,13.83
2022-12-16T04:41:27.835Z,12.90
2022-12-16T04:44:13.079Z,16.17
2022-12-16T04:46:58.584Z,15.30
2022-12-16T04:49:44.047Z,14.53
2022-12-16T04:52:29.552Z,14.00
2022-12-16T04:55:15.127Z,13.47
2022-12-16T04:58:03.129Z,14.27
2022-12-16T05:00:48.631Z,12.70
2022-12-16T05:03:34.441Z,13.73
2022-12-16T05:06:19.984Z,14.60
2022-12-16T05:09:05.463Z,12.90
2022-12-16T05:11:50.607Z,17.17
2022-12-16T05:14:43.518Z,15.07
2022-12-16T05:17:29.163Z,13.60
2022-12-16T05:20:14.295Z,12.43
2022-12-16T05:23:00.099Z,14.40
2022-12-16T05:25:45.297Z,11.97
2022-12-16T05:28:30.740Z,12.67
2022-12-16T05:31:16.347Z,15.00
2022-12-16T05:34:01.916Z,14.27
2022-12-16T05:36:47.503Z,13.60
2022-12-16T05:39:34.370Z,10.57
2022-12-16T05:42:19.759Z,11.30
2022-12-16T05:45:05.254Z,11.37
2022-12-16T05:47:50.788Z,12.03
2022-12-16T05:50:36.199Z,15.00
2022-12-16T05:53:21.948Z,10.00
2022-12-16T05:56:07.106Z,11.33
2022-12-16T05:58:52.632Z,11.40
2022-12-16T06:01:38.152Z,12.60
2022-12-16T06:04:23.547Z,12.80
2022-12-16T06:07:08.974Z,10.93
2022-12-16T06:09:56.768Z,12.20
2022-12-16T06:12:42.623Z,13.97
2022-12-16T06:15:28.696Z,12.23
2022-12-16T06:18:14.072Z,12.80
2022-12-16T06:20:59.548Z,11.37
2022-12-16T06:23:44.896Z,11.63
2022-12-16T06:26:30.351Z,15.03
2022-12-16T06:29:15.501Z,11.33
2022-12-16T06:32:01.058Z,11.90
2022-12-16T06:34:46.513Z,12.83
2022-12-16T06:37:31.811Z,11.90
2022-12-16T06:40:17.257Z,23.57
2022-12-16T06:43:02.714Z,12.07
2022-12-16T06:45:48.346Z,11.37
2022-12-16T06:48:33.992Z,12.33
2022-12-16T06:51:19.440Z,13.90
2022-12-16T06:54:04.841Z,14.87
2022-12-16T06:56:50.350Z,14.63
2022-12-16T06:59:35.417Z,11.43
2022-12-16T07:02:21.073Z,14.60
2022-12-16T07:05:07.438Z,12.17
2022-12-16T07:07:52.611Z,13.03
2022-12-16T07:10:38.080Z,12.33
2022-12-16T07:13:23.507Z,16.60
2022-12-16T07:16:09.256Z,19.60
2022-12-16T07:18:54.470Z,13.07
2022-12-16T07:21:40.367Z,22.23
2022-12-16T07:24:25.585Z,31.10
2022-12-16T07:27:11.086Z,25.50
2022-12-16T07:29:56.488Z,21.50
2022-12-16T07:33:01.818Z,13.07
2022-12-16T07:35:47.082Z,15.53
2022-12-16T07:38:32.275Z,14.63
2022-12-16T07:41:17.745Z,14.27
2022-12-16T07:44:02.860Z,17.33
2022-12-16T07:46:48.267Z,22.30
2022-12-16T07:49:38.253Z,16.43
2022-12-16T07:52:23.915Z,19.10
2022-12-16T07:55:09.234Z,13.93
2022-12-16T07:57:54.696Z,10.80
2022-12-16T08:00:40.257Z,14.17
2022-12-16T08:03:25.851Z,11.97
2022-12-16T08:06:11.392Z,13.07
2022-12-16T08:08:56.880Z,11.77
2022-12-16T08:11:42.373Z,10.33
2022-12-16T08:14:32.577Z,12.57
2022-12-16T08:17:18.215Z,15.67
2022-12-16T08:20:03.670Z,15.93
2022-12-16T08:22:49.083Z,17.67
2022-12-16T08:25:51.167Z,14.63
2022-12-16T08:28:36.289Z,11.70
2022-12-16T08:31:21.856Z,17.50
2022-12-16T08:34:07.274Z,20.63
2022-12-16T08:36:53.219Z,15.93
2022-12-16T08:39:39.566Z,18.87
2022-12-16T08:42:24.918Z,14.83
2022-12-16T08:45:10.369Z,15.47
2022-12-16T08:47:55.750Z,14.50
2022-12-16T08:50:41.083Z,27.80
2022-12-16T08:53:26.507Z,22.97
2022-12-16T08:56:11.776Z,17.80
2022-12-16T08:58:57.209Z,17.33
2022-12-16T09:01:42.566Z,15.83
2022-12-16T09:04:27.883Z,15.43
2022-12-16T09:07:13.323Z,15.67
2022-12-16T09:09:58.530Z,18.03
2022-12-16T09:12:44.082Z,15.80
2022-12-16T09:15:29.611Z,17.73
2022-12-16T09:18:15.406Z,15.87
2022-12-16T09:21:00.880Z,14.13
2022-12-16T09:23:46.309Z,16.43
2022-12-16T09:26:31.816Z,13.73
2022-12-16T09:29:17.523Z,17.13
2022-12-16T09:32:02.973Z,14.57
2022-12-16T09:34:48.292Z,15.17
2022-12-16T09:37:33.774Z,14.70
2022-12-16T09:40:19.106Z,18.43
2022-12-16T09:43:13.113Z,14.60
2022-12-16T09:46:11.450Z,15.00
2022-12-16T09:49:11.640Z,15.10
2022-12-16T09:51:58.665Z,16.67
2022-12-16T09:54:48.017Z,16.17
2022-12-16T09:57:33.934Z,16.00
2022-12-16T10:00:26.370Z,17.30
2022-12-16T10:03:13.570Z,14.80
2022-12-16T10:06:15.801Z,15.93
2022-12-16T10:09:10.074Z,14.03
2022-12-16T10:12:26.434Z,16.57
2022-12-16T10:15:28.139Z,17.17
2022-12-16T10:18:30.442Z,13.60
2022-12-16T10:21:16.386Z,14.50
2022-12-16T10:24:44.691Z,11.67
2022-12-16T10:27:33.873Z,13.03
2022-12-16T10:30:21.435Z,12.43
2022-12-16T10:33:08.347Z,15.47
2022-12-16T10:36:05.127Z,12.97
2022-12-16T10:39:00.651Z,16.13
2022-12-16T10:41:51.259Z,13.17
2022-12-16T10:44:50.288Z,14.63
2022-12-16T10:47:38.011Z,12.43
2022-12-16T10:50:23.917Z,14.67
2022-12-16T10:53:20.362Z,13.53
2022-12-16T10:56:08.468Z,12.60
2022-12-16T10:59:13.520Z,14.43
2022-12-16T11:01:59.316Z,15.27
2022-12-16T11:04:57.483Z,13.57
2022-12-16T11:07:57.554Z,13.67
2022-12-16T11:10:49.281Z,13.30
2022-12-16T11:13:39.278Z,15.67
2022-12-16T11:16:33.104Z,14.77
2022-12-16T11:19:18.573Z,14.27
2022-12-16T11:22:04.985Z,15.00
2022-12-16T11:24:50.788Z,14.93
2022-12-16T11:27:45.575Z,13.50
2022-12-16T11:30:31.088Z,13.63
2022-12-16T11:33:18.592Z,13.53
2022-12-16T11:36:16.659Z,13.77
2022-12-16T11:39:06.044Z,22.90
2022-12-16T11:42:04.054Z,16.37
2022-12-16T11:44:57.215Z,14.77
2022-12-16T11:48:13.657Z,13.10
2022-12-16T11:51:09.245Z,13.57
2022-12-16T11:54:15.061Z,12.10
2022-12-16T11:57:03.073Z,12.90
2022-12-16T11:59:55.910Z,19.90
2022-12-16T12:03:11.693Z,16.93
2022-12-16T12:06:19.751Z,17.90
2022-12-16T12:09:14.807Z,15.30
2022-12-16T12:12:27.708Z,13.50
2022-12-16T12:15:24.831Z,18.97
2022-12-16T12:18:35.418Z,16.00
2022-12-16T12:21:43.207Z,13.27
2022-12-16T12:24:37.736Z,12.03
2022-12-16T12:27:29.287Z,14.67
2022-12-16T12:30:22.789Z,13.43
2022-12-16T12:33:31.516Z,12.30
2022-12-16T12:37:03.857Z,13.10
2022-12-16T12:40:24.250Z,12.10
2022-12-16T12:43:14.827Z,15.27
2022-12-16T12:46:41.380Z,11.33
2022-12-16T12:50:05.700Z,10.03
2022-12-16T12:53:13.155Z,11.33
2022-12-16T12:56:20.032Z,12.87
2022-12-16T12:59:07.457Z,12.40
2022-12-16T13:01:54.789Z,17.00
2022-12-16T13:04:42.365Z,16.23
2022-12-16T13:07:28.230Z,16.47
2022-12-16T13:10:31.516Z,13.13
2022-12-16T13:13:36.783Z,12.07
2022-12-16T13:16:27.617Z,11.50
2022-12-16T13:19:47.719Z,12.23
2022-12-16T13:22:54.286Z,11.23
2022-12-16T13:25:50.035Z,10.87
2022-12-16T13:28:54.356Z,13.73
2022-12-16T13:31:40.493Z,12.53
2022-12-16T13:34:34.209Z,11.60
2022-12-16T13:37:28.548Z,12.67
2022-12-16T13:40:30.645Z,14.23
2022-12-16T13:43:20.555Z,14.10
2022-12-16T13:46:23.664Z,13.30
2022-12-16T13:49:09.354Z,12.27
2022-12-16T13:51:57.398Z,13.70
2022-12-16T13:54:50.582Z,9.80
2022-12-16T13:57:39.488Z,11.40
2022-12-16T14:00:39.757Z,13.20
2022-12-16T14:03:33.856Z,10.17
2022-12-16T14:06:22.789Z,11.70
2022-12-16T14:09:08.722Z,10.37
2022-12-16T14:12:06.876Z,11.73
2022-12-16T14:15:08.717Z,14.97
2022-12-16T14:18:02.678Z,12.33
2022-12-16T14:20:53.372Z,11.90
2022-12-16T14:23:57.931Z,10.27
2022-12-16T14:26:45.236Z,12.13
2022-12-16T14:29:48.009Z,13.17
2022-12-16T14:32:42.127Z,12.53
2022-12-16T14:35:36.099Z,13.27
2022-12-16T14:38:45.230Z,14.03
2022-12-16T14:41:37.641Z,13.93
2022-12-16T14:44:34.293Z,11.93
2022-12-16T14:47:19.788Z,12.13
2022-12-16T14:50:11.490Z,16.43
2022-12-16T14:52:58.080Z,14.07
2022-12-16T14:55:50.046Z,16.33
2022-12-16T14:58:42.723Z,12.97
2022-12-16T15:01:38.809Z,14.10
2022-12-16T15:04:38.029Z,12.23
2022-12-16T15:07:31.163Z,12.43
2022-12-16T15:10:19.510Z,12.33
2022-12-16T15:13:06.958Z,13.73
2022-12-16T15:16:00.998Z,13.03
2022-12-16T15:18:53.501Z,14.17
2022-12-16T15:21:39.207Z,14.57
2022-12-16T15:24:38.523Z,15.60
2022-12-16T15:27:52.311Z,18.17
2022-12-16T15:30:57.139Z,17.57
2022-12-16T15:33:56.978Z,16.57
2022-12-16T15:36:50.690Z,16.07
2022-12-16T15:39:38.601Z,17.87
2022-12-16T15:42:25.424Z,16.00
2022-12-16T15:45:11.569Z,13.63
2022-12-16T15:47:57.785Z,15.90
2022-12-16T15:50:47.066Z,14.10
2022-12-16T15:53:51.939Z,12.40
2022-12-16T15:56:51.827Z,15.67
2022-12-16T15:59:44.332Z,17.47
2022-12-16T16:02:47.972Z,16.93
2022-12-16T16:05:34.826Z,19.37
2022-12-16T16:08:20.209Z,17.47
2022-12-16T16:11:05.767Z,15.67
2022-12-16T16:13:51.253Z,24.57
2022-12-16T16:16:38.682Z,18.73
2022-12-16T16:19:31.324Z,25.00
2022-12-16T16:22:17.043Z,18.80
2022-12-16T16:25:02.323Z,15.47
2022-12-16T16:27:47.879Z,15.37
2022-12-16T16:30:33.488Z,18.03
2022-12-16T16:33:18.799Z,16.80
2022-12-16T16:36:04.233Z,23.13
2022-12-16T16:38:49.697Z,20.47
2022-12-16T16:41:35.033Z,20.00
2022-12-16T16:44:20.575Z,19.60
2022-12-16T16:47:06.182Z,24.23
2022-12-16T16:49:58.281Z,26.77
2022-12-16T16:52:45.389Z,21.97
2022-12-16T16:55:40.613Z,24.60
2022-12-16T16:58:31.635Z,22.13
2022-12-16T17:01:17.345Z,20.33
2022-12-16T17:04:02.883Z,31.10
2022-12-16T17:06:48.156Z,25.27
2022-12-16T17:09:33.353Z,24.90
2022-12-16T17:12:19.093Z,22.37
2022-12-16T17:15:04.433Z,25.77
2022-12-16T17:17:49.744Z,24.47
2022-12-16T17:20:35.744Z,29.60
2022-12-16T17:23:21.217Z,28.80
2022-12-16T17:26:06.624Z,32.50
2022-12-16T17:28:52.094Z,30.43
2022-12-16T17:31:37.584Z,29.57
2022-12-16T17:34:22.928Z,34.53
2022-12-16T17:37:08.078Z,35.07
2022-12-16T17:39:53.550Z,35.20
2022-12-16T17:42:44.813Z,37.37
2022-12-16T17:45:31.659Z,33.03
2022-12-16T17:48:16.950Z,36.90
2022-12-16T17:51:02.458Z,34.00
2022-12-16T17:53:54.559Z,30.80
2022-12-16T17:56:43.235Z,26.63
2022-12-16T17:59:28.850Z,26.40
2022-12-16T18:02:16.357Z,25.40
2022-12-16T18:05:01.672Z,21.70
2022-12-16T18:07:47.154Z,23.73
2022-12-16T18:10:32.770Z,22.40
2022-12-16T18:13:18.211Z,20.10
2022-12-16T18:16:10.118Z,21.93
2022-12-16T18:18:55.631Z,22.13
2022-12-16T18:21:40.760Z,18.93
2022-12-16T18:24:46.627Z,21.13
2022-12-16T18:27:33.753Z,25.17
2022-12-16T18:30:19.161Z,22.13
2022-12-16T18:33:04.592Z,21.37
2022-12-16T18:35:50.189Z,20.60
2022-12-16T18:38:35.590Z,22.10
2022-12-16T18:41:25.643Z,22.77
2022-12-16T18:44:11.154Z,19.87
2022-12-16T18:46:57.217Z,19.17
2022-12-16T18:49:42.739Z,20.53
2022-12-16T18:52:28.278Z,20.43
2022-12-16T18:55:13.649Z,17.30
2022-12-16T18:58:00.570Z,19.43
2022-12-16T19:00:46.220Z,21.43
2022-12-16T19:03:31.632Z,29.00
2022-12-16T19:06:17.062Z,23.27
2022-12-16T19:09:02.324Z,25.27
2022-12-16T19:11:47.747Z,23.27
2022-12-16T19:14:32.944Z,22.57
2022-12-16T19:17:18.456Z,20.83
2022-12-16T19:20:03.985Z,23.60
2022-12-16T19:22:49.454Z,22.23
2022-12-16T19:25:34.968Z,28.50
2022-12-16T19:28:20.567Z,24.80
2022-12-16T19:31:16.141Z,22.53
2022-12-16T19:34:02.069Z,26.40
2022-12-16T19:36:47.978Z,25.17
2022-12-16T19:39:33.924Z,27.53
2022-12-16T19:42:19.427Z,25.27
2022-12-16T19:45:05.051Z,27.90
2022-12-16T19:47:50.218Z,40.50
2022-12-16T19:50:35.851Z,37.70
2022-12-16T19:53:21.325Z,40.90
2022-12-16T19:56:24.376Z,33.33
2022-12-16T19:59:09.784Z,41.63
2022-12-16T20:01:55.387Z,41.93
2022-12-16T20:04:40.526Z,38.93
2022-12-16T20:07:26.095Z,34.70
2022-12-16T20:10:11.493Z,32.53
2022-12-16T20:12:57.155Z,37.40
2022-12-16T20:15:42.398Z,45.73
2022-12-16T20:18:28.062Z,46.20
2022-12-16T20:21:13.367Z,42.63
2022-12-16T20:23:58.563Z,50.73
2022-12-16T20:26:44.059Z,44.63
2022-12-16T20:29:29.464Z,42.23
2022-12-16T20:32:15.064Z,39.73
2022-12-16T20:35:00.427Z,42.27
2022-12-16T20:37:45.893Z,49.27
2022-12-16T20:40:31.473Z,48.60
2022-12-16T20:43:17.095Z,42.00
2022-12-16T20:46:02.170Z,32.00
2022-12-16T20:48:47.725Z,32.37
2022-12-16T20:51:33.106Z,38.07
2022-12-16T20:54:18.256Z,38.37
2022-12-16T20:57:05.951Z,33.73
2022-12-16T20:59:54.852Z,29.87
2022-12-16T21:02:41.926Z,32.00
2022-12-16T21:05:27.553Z,25.10
2022-12-16T21:08:12.925Z,21.30
2022-12-16T21:10:58.405Z,25.87
2022-12-16T21:13:44.032Z,26.40
2022-12-16T21:16:29.775Z,26.67
2022-12-16T21:19:15.174Z,29.50
2022-12-16T21:22:00.639Z,25.73
2022-12-16T21:24:46.040Z,28.43
2022-12-16T21:27:31.399Z,23.93
2022-12-16T21:30:16.796Z,29.27
2022-12-16T21:33:02.277Z,28.23
2022-12-16T21:35:47.550Z,23.60
2022-12-16T21:38:33.057Z,27.87
2022-12-16T21:41:20.049Z,28.10
2022-12-16T21:44:05.592Z,28.47
2022-12-16T21:46:51.839Z,27.63
2022-12-16T21:49:37.341Z,29.03
2022-12-16T21:52:23.188Z,31.40
2022-12-16T21:55:15.825Z,29.93
2022-12-16T21:58:01.744Z,24.60
2022-12-16T22:00:47.234Z,29.67
2022-12-16T22:03:32.575Z,24.47
2022-12-16T22:06:18.618Z,24.77
2022-12-16T22:09:04.066Z,25.20
2022-12-16T22:11:49.453Z,27.80
2022-12-16T22:14:35.020Z,25.73
2022-12-16T22:17:22.031Z,22.80
2022-12-16T22:20:07.330Z,24.63
2022-12-16T22:22:52.748Z,24.43
2022-12-16T22:25:38.339Z,25.93
2022-12-16T22:28:24.901Z,28.53
2022-12-16T22:31:16.132Z,24.73
2022-12-16T22:34:03.335Z,29.90
2022-12-16T22:36:48.607Z,26.13
2022-12-16T22:39:34.108Z,33.60
2022-12-16T22:42:24.063Z,29.67
2022-12-16T22:45:09.487Z,31.07
2022-12-16T22:47:54.984Z,33.93
2022-12-16T22:50:41.346Z,31.10
2022-12-16T22:53:26.925Z,38.90
2022-12-16T22:56:13.719Z,37.00
2022-12-16T22:58:59.480Z,34.13
2022-12-16T23:01:45.159Z,38.63
2022-12-16T23:04:30.799Z,30.80
2022-12-16T23:07:16.147Z,29.17
2022-12-16T23:10:01.665Z,28.27
2022-12-16T23:12:47.177Z,27.23
2022-12-16T23:15:33.044Z,32.10
2022-12-16T23:18:19.008Z,27.40
2022-12-16T23:21:09.688Z,27.63
2022-12-16T23:24:11.799Z,22.83
2022-12-16T23:26:57.170Z,28.80
2022-12-16T23:29:42.577Z,22.30
2022-12-16T23:32:28.155Z,20.83
2022-12-16T23:35:13.479Z,23.63
2022-12-16T23:37:58.879Z,24.30
2022-12-16T23:40:44.430Z,23.00
2022-12-16T23:43:29.550Z,25.37
2022-12-16T23:46:15.168Z,27.43
2022-12-16T23:49:00.614Z,27.83
2022-12-16T23:51:46.286Z,31.17
2022-12-16T23:54:48.568Z,23.63
2022-12-16T23:57:33.771Z,32.53
